createdAt,value
2023-01-09T00:01:25.156Z,7.84
2023-01-09T00:03:51.687Z,7.63
2023-01-09T00:06:18.156Z,7.70
2023-01-09T00:08:44.623Z,7.60
2023-01-09T00:11:11.390Z,7.64
2023-01-09T00:13:38.269Z,7.55
2023-01-09T00:16:05.484Z,7.63
2023-01-09T00:18:32.058Z,7.49
2023-01-09T00:21:03.232Z,7.46
2023-01-09T00:23:30.037Z,7.63
2023-01-09T00:26:07.068Z,7.51
2023-01-09T00:28:34.532Z,7.61
2023-01-09T00:31:01.723Z,7.52
2023-01-09T00:33:41.182Z,7.59
2023-01-09T00:36:07.851Z,7.65
2023-01-09T00:38:36.697Z,7.74
2023-01-09T00:41:04.461Z,7.71
2023-01-09T00:43:33.616Z,7.68
2023-01-09T00:46:01.483Z,7.71
2023-01-09T00:48:29.639Z,7.68
2023-01-09T00:50:58.094Z,7.88
2023-01-09T00:53:27.208Z,7.94
2023-01-09T00:55:54.510Z,7.91
2023-01-09T00:58:20.939Z,8.02
2023-01-09T01:00:47.486Z,7.93
2023-01-09T01:03:13.927Z,7.73
2023-01-09T01:05:59.194Z,7.85
2023-01-09T01:08:25.562Z,7.88
2023-01-09T01:10:52.026Z,7.90
2023-01-09T01:13:18.411Z,7.78
2023-01-09T01:15:45.717Z,7.83
2023-01-09T01:18:12.810Z,7.93
2023-01-09T01:20:43.348Z,7.97
2023-01-09T01:23:09.786Z,7.82
2023-01-09T01:25:40.483Z,7.88
2023-01-09T01:28:07.323Z,7.88
2023-01-09T01:30:33.941Z,7.75
2023-01-09T01:33:00.424Z,7.96
2023-01-09T01:35:26.987Z,7.83
2023-01-09T01:37:53.454Z,7.75
2023-01-09T01:40:19.858Z,8.02
2023-01-09T01:42:50.260Z,8.08
2023-01-09T01:45:19.585Z,8.05
2023-01-09T01:47:52.563Z,8.06
2023-01-09T01:50:37.342Z,8.07
2023-01-09T01:53:12.906Z,8.15
2023-01-09T01:55:41.742Z,8.13
2023-01-09T01:58:09.901Z,8.16
2023-01-09T02:00:38.654Z,8.13
2023-01-09T02:03:06.562Z,8.12
2023-01-09T02:05:33.802Z,8.07
2023-01-09T02:08:00.318Z,8.03
2023-01-09T02:10:26.841Z,8.30
2023-01-09T02:12:53.422Z,8.20
2023-01-09T02:15:20.583Z,8.32
2023-01-09T02:18:05.757Z,8.28
2023-01-09T02:20:45.967Z,8.23
2023-01-09T02:23:15.359Z,8.34
2023-01-09T02:25:41.805Z,8.31
2023-01-09T02:28:19.964Z,8.22
2023-01-09T02:30:53.792Z,8.05
2023-01-09T02:33:32.447Z,8.00
2023-01-09T02:36:04.531Z,7.69
2023-01-09T02:38:33.799Z,7.83
2023-01-09T02:41:04.333Z,7.49
2023-01-09T02:43:31.613Z,7.39
2023-01-09T02:45:58.183Z,7.41
2023-01-09T02:48:24.908Z,7.44
2023-01-09T02:50:57.930Z,7.52
2023-01-09T02:53:36.321Z,7.66
2023-01-09T02:56:11.598Z,7.69
2023-01-09T02:58:44.120Z,7.62
2023-01-09T03:01:19.704Z,7.82
2023-01-09T03:03:51.952Z,7.74
2023-01-09T03:06:22.620Z,7.80
2023-01-09T03:08:52.421Z,7.61
2023-01-09T03:11:19.007Z,7.54
2023-01-09T03:13:47.160Z,7.57
2023-01-09T03:16:15.957Z,7.50
2023-01-09T03:18:43.297Z,7.26
2023-01-09T03:21:11.676Z,6.76
2023-01-09T03:23:55.319Z,7.05
2023-01-09T03:26:21.902Z,6.97
2023-01-09T03:28:48.575Z,7.05
2023-01-09T03:31:15.030Z,6.95
2023-01-09T03:33:41.747Z,6.82
2023-01-09T03:36:09.121Z,7.15
2023-01-09T03:38:35.855Z,7.11
2023-01-09T03:41:02.323Z,6.98
2023-01-09T03:43:28.852Z,7.02
2023-01-09T03:45:55.468Z,6.76
2023-01-09T03:48:22.123Z,6.69
2023-01-09T03:50:49.466Z,7.07
2023-01-09T03:53:15.974Z,6.93
2023-01-09T03:55:49.836Z,6.85
2023-01-09T03:58:16.902Z,6.61
2023-01-09T04:00:45.953Z,6.72
2023-01-09T04:03:12.811Z,7.05
2023-01-09T04:05:39.324Z,7.15
2023-01-09T04:08:05.862Z,7.37
2023-01-09T04:10:32.314Z,7.37
2023-01-09T04:12:58.739Z,7.39
2023-01-09T04:15:25.652Z,7.00
2023-01-09T04:17:52.129Z,7.11
2023-01-09T04:20:18.558Z,6.94
2023-01-09T04:22:45.372Z,6.96
2023-01-09T04:25:11.786Z,6.92
2023-01-09T04:27:38.193Z,6.88
2023-01-09T04:30:04.959Z,7.01
2023-01-09T04:32:31.354Z,6.95
2023-01-09T04:34:57.777Z,6.93
2023-01-09T04:37:24.666Z,6.95
2023-01-09T04:39:52.307Z,6.59
2023-01-09T04:42:18.715Z,6.44
2023-01-09T04:44:45.138Z,6.50
2023-01-09T04:47:13.522Z,6.38
2023-01-09T04:49:40.113Z,6.56
2023-01-09T04:52:06.555Z,6.67
2023-01-09T04:54:34.345Z,6.64
2023-01-09T04:57:00.851Z,6.73
2023-01-09T04:59:27.832Z,6.67
2023-01-09T05:01:56.084Z,6.61
2023-01-09T05:04:24.610Z,6.85
2023-01-09T05:06:51.121Z,6.97
2023-01-09T05:09:17.612Z,7.00
2023-01-09T05:11:44.013Z,7.18
2023-01-09T05:14:10.474Z,7.09
2023-01-09T05:16:36.979Z,7.22
2023-01-09T05:19:03.557Z,7.01
2023-01-09T05:21:30.018Z,6.42
2023-01-09T05:23:56.500Z,6.72
2023-01-09T05:26:26.066Z,6.76
2023-01-09T05:28:52.968Z,6.43
2023-01-09T05:31:20.057Z,6.42
2023-01-09T05:33:46.562Z,6.06
2023-01-09T05:36:13.131Z,6.34
2023-01-09T05:38:39.554Z,6.31
2023-01-09T05:41:06.100Z,5.94
2023-01-09T05:43:32.753Z,6.09
2023-01-09T05:45:59.613Z,6.12
2023-01-09T05:48:26.053Z,6.14
2023-01-09T05:50:52.490Z,6.29
2023-01-09T05:53:18.944Z,6.13
2023-01-09T05:55:45.355Z,6.10
2023-01-09T05:58:12.703Z,6.20
2023-01-09T06:00:39.319Z,5.75
2023-01-09T06:03:05.914Z,5.88
2023-01-09T06:05:32.412Z,5.85
2023-01-09T06:07:58.840Z,6.01
2023-01-09T06:10:25.253Z,6.28
2023-01-09T06:12:51.783Z,6.26
2023-01-09T06:15:20.370Z,6.25
2023-01-09T06:17:46.972Z,6.27
2023-01-09T06:20:13.541Z,6.10
2023-01-09T06:22:39.994Z,5.56
2023-01-09T06:25:06.578Z,5.56
2023-01-09T06:27:32.976Z,5.57
2023-01-09T06:29:59.397Z,5.61
2023-01-09T06:32:25.820Z,5.53
2023-01-09T06:34:52.360Z,5.63
2023-01-09T06:37:18.837Z,5.71
2023-01-09T06:39:45.378Z,5.65
2023-01-09T06:42:11.760Z,5.66
2023-01-09T06:44:38.141Z,5.62
2023-01-09T06:47:04.893Z,5.84
2023-01-09T06:49:31.407Z,5.59
2023-01-09T06:51:57.891Z,5.30
2023-01-09T06:54:24.775Z,5.37
2023-01-09T06:56:51.207Z,5.28
2023-01-09T06:59:17.651Z,5.50
2023-01-09T07:01:44.179Z,5.94
2023-01-09T07:04:11.180Z,6.18
2023-01-09T07:06:37.997Z,5.17
2023-01-09T07:09:06.029Z,5.45
2023-01-09T07:11:32.567Z,5.85
2023-01-09T07:13:58.974Z,5.77
2023-01-09T07:16:25.428Z,5.62
2023-01-09T07:18:52.490Z,5.88
2023-01-09T07:21:18.919Z,5.66
2023-01-09T07:23:45.357Z,5.36
2023-01-09T07:26:11.768Z,5.84
2023-01-09T07:28:38.389Z,5.95
2023-01-09T07:31:07.463Z,5.63
2023-01-09T07:33:34.479Z,5.50
2023-01-09T07:36:00.935Z,5.50
2023-01-09T07:38:27.582Z,5.19
2023-01-09T07:40:54.012Z,4.83
2023-01-09T07:43:20.445Z,5.23
2023-01-09T07:45:46.992Z,5.10
2023-01-09T07:48:13.715Z,5.32
2023-01-09T07:50:40.139Z,5.10
2023-01-09T07:53:06.565Z,5.05
2023-01-09T07:55:33.004Z,5.06
2023-01-09T07:57:59.422Z,5.21
2023-01-09T08:00:25.861Z,4.96
2023-01-09T08:02:53.490Z,4.97
2023-01-09T08:05:20.298Z,5.07
2023-01-09T08:07:46.778Z,5.07
2023-01-09T08:10:13.436Z,5.14
2023-01-09T08:12:42.619Z,5.09
2023-01-09T08:15:09.301Z,5.14
2023-01-09T08:17:35.799Z,5.19
2023-01-09T08:20:02.428Z,5.21
2023-01-09T08:22:29.185Z,5.17
2023-01-09T08:24:55.622Z,5.03
2023-01-09T08:27:22.119Z,5.01
2023-01-09T08:29:48.543Z,5.09
2023-01-09T08:32:14.930Z,5.40
2023-01-09T08:34:41.388Z,5.24
2023-01-09T08:37:07.838Z,5.46
2023-01-09T08:39:35.988Z,5.49
2023-01-09T08:42:21.203Z,5.31
2023-01-09T08:45:06.450Z,5.52
2023-01-09T08:47:34.109Z,5.52
2023-01-09T08:50:01.204Z,5.46
2023-01-09T08:52:30.543Z,5.43
2023-01-09T08:54:57.174Z,5.64
2023-01-09T08:57:23.601Z,5.38
2023-01-09T08:59:50.261Z,5.47
2023-01-09T09:02:16.665Z,5.67
2023-01-09T09:04:43.144Z,5.49
2023-01-09T09:07:09.589Z,5.59
2023-01-09T09:09:36.059Z,5.53
2023-01-09T09:12:02.520Z,5.69
2023-01-09T09:14:47.866Z,5.53
2023-01-09T09:17:14.309Z,5.48
2023-01-09T09:19:42.575Z,5.57
2023-01-09T09:22:09.046Z,5.94
2023-01-09T09:24:35.467Z,6.00
2023-01-09T09:27:01.902Z,5.89
2023-01-09T09:29:28.384Z,5.68
2023-01-09T09:31:54.802Z,5.62
2023-01-09T09:34:21.262Z,5.57
2023-01-09T09:36:47.725Z,5.70
2023-01-09T09:39:14.178Z,5.62
2023-01-09T09:42:25.832Z,5.61
2023-01-09T09:45:03.277Z,5.70
2023-01-09T09:47:45.745Z,5.90
2023-01-09T09:50:12.166Z,5.99
2023-01-09T09:52:57.515Z,5.92
2023-01-09T09:55:33.056Z,6.11
2023-01-09T09:58:01.131Z,6.24
2023-01-09T10:00:28.069Z,6.12
2023-01-09T10:03:01.738Z,6.07
2023-01-09T10:05:34.420Z,6.12
2023-01-09T10:08:15.536Z,6.20
2023-01-09T10:11:00.900Z,6.24
2023-01-09T10:13:46.065Z,6.15
2023-01-09T10:16:18.718Z,6.09
2023-01-09T10:19:04.654Z,6.14
2023-01-09T10:21:40.174Z,6.14
2023-01-09T10:24:09.631Z,6.42
2023-01-09T10:26:48.384Z,6.17
2023-01-09T10:29:24.136Z,6.31
2023-01-09T10:31:53.680Z,6.29
2023-01-09T10:34:20.219Z,6.42
2023-01-09T10:36:59.911Z,6.49
2023-01-09T10:39:31.264Z,6.45
2023-01-09T10:42:06.901Z,6.42
2023-01-09T10:44:37.387Z,6.34
2023-01-09T10:47:06.025Z,6.40
2023-01-09T10:49:32.455Z,6.32
2023-01-09T10:52:01.903Z,6.31
2023-01-09T10:54:29.029Z,6.40
2023-01-09T10:57:02.151Z,6.67
2023-01-09T10:59:32.494Z,6.34
2023-01-09T11:01:59.177Z,6.24
2023-01-09T11:04:27.000Z,6.30
2023-01-09T11:06:56.881Z,6.24
2023-01-09T11:09:23.351Z,6.30
2023-01-09T11:11:51.998Z,6.35
2023-01-09T11:14:31.177Z,6.60
2023-01-09T11:16:59.032Z,6.40
2023-01-09T11:19:26.227Z,6.51
2023-01-09T11:22:14.277Z,6.61
2023-01-09T11:24:40.722Z,6.65
2023-01-09T11:27:13.203Z,6.75
2023-01-09T11:29:42.707Z,6.84
2023-01-09T11:32:24.899Z,6.98
2023-01-09T11:34:51.341Z,6.68
2023-01-09T11:37:26.235Z,7.02
2023-01-09T11:39:52.943Z,6.75
2023-01-09T11:42:42.328Z,6.95
2023-01-09T11:45:24.316Z,6.72
2023-01-09T11:47:50.762Z,6.88
2023-01-09T11:50:25.456Z,6.90
2023-01-09T11:53:10.695Z,7.04
2023-01-09T11:55:42.488Z,7.15
2023-01-09T11:58:14.581Z,7.11
2023-01-09T12:01:04.427Z,6.79
2023-01-09T12:03:37.057Z,6.88
2023-01-09T12:06:10.834Z,7.04
2023-01-09T12:08:56.091Z,7.14
2023-01-09T12:11:25.612Z,7.08
2023-01-09T12:14:11.127Z,7.05
2023-01-09T12:16:55.775Z,7.03
2023-01-09T12:19:28.437Z,6.71
2023-01-09T12:22:01.028Z,6.72
2023-01-09T12:24:39.999Z,6.61
2023-01-09T12:27:16.058Z,6.38
2023-01-09T12:29:43.635Z,6.50
2023-01-09T12:32:21.099Z,6.40
2023-01-09T12:35:14.151Z,6.32
2023-01-09T12:37:59.507Z,6.15
2023-01-09T12:40:36.716Z,6.43
2023-01-09T12:43:03.255Z,6.53
2023-01-09T12:45:29.767Z,6.25
2023-01-09T12:48:03.197Z,6.37
2023-01-09T12:50:46.051Z,6.66
2023-01-09T12:53:19.674Z,6.40
2023-01-09T12:56:09.350Z,6.13
2023-01-09T12:58:51.805Z,6.15
2023-01-09T13:01:24.508Z,6.24
2023-01-09T13:04:03.108Z,6.29
2023-01-09T13:06:31.803Z,6.37
2023-01-09T13:09:07.004Z,6.53
2023-01-09T13:11:43.268Z,6.41
2023-01-09T13:14:09.674Z,6.51
2023-01-09T13:16:41.570Z,6.58
2023-01-09T13:19:13.257Z,6.20
2023-01-09T13:21:40.315Z,6.03
2023-01-09T13:24:12.852Z,6.46
2023-01-09T13:26:50.289Z,6.56
2023-01-09T13:29:19.775Z,6.54
2023-01-09T13:32:06.097Z,6.66
2023-01-09T13:34:33.874Z,6.61
2023-01-09T13:37:00.581Z,6.39
2023-01-09T13:39:28.464Z,6.15
2023-01-09T13:42:16.845Z,6.40
2023-01-09T13:44:43.715Z,6.50
2023-01-09T13:47:18.736Z,6.30
2023-01-09T13:49:45.120Z,6.68
2023-01-09T13:52:30.483Z,6.46
2023-01-09T13:54:59.600Z,6.54
2023-01-09T13:57:30.862Z,6.47
2023-01-09T14:00:12.517Z,6.56
2023-01-09T14:02:39.476Z,6.53
2023-01-09T14:05:13.408Z,6.62
2023-01-09T14:07:41.379Z,6.48
2023-01-09T14:10:21.433Z,6.64
2023-01-09T14:12:48.309Z,6.71
2023-01-09T14:15:33.578Z,6.71
2023-01-09T14:18:01.592Z,6.67
2023-01-09T14:20:38.687Z,6.92
2023-01-09T14:23:28.268Z,7.09
2023-01-09T14:25:53.771Z,6.93
2023-01-09T14:28:22.030Z,7.09
2023-01-09T14:30:54.328Z,6.95
2023-01-09T14:33:21.669Z,7.09
2023-01-09T14:35:54.218Z,6.98
2023-01-09T14:38:50.341Z,6.69
2023-01-09T14:41:20.928Z,6.47
2023-01-09T14:43:59.213Z,6.58
2023-01-09T14:46:29.866Z,6.65
2023-01-09T14:49:03.714Z,6.69
2023-01-09T14:51:31.651Z,6.76
2023-01-09T14:54:00.627Z,6.77
2023-01-09T14:56:28.776Z,6.68
2023-01-09T14:59:05.334Z,6.32
2023-01-09T15:01:33.141Z,6.62
2023-01-09T15:04:02.197Z,6.52
2023-01-09T15:06:30.914Z,6.30
2023-01-09T15:09:02.472Z,6.15
2023-01-09T15:11:29.477Z,6.42
2023-01-09T15:13:58.919Z,6.39
2023-01-09T15:16:26.398Z,6.33
2023-01-09T15:18:58.166Z,6.09
2023-01-09T15:21:26.132Z,5.74
2023-01-09T15:23:53.052Z,5.61
2023-01-09T15:26:26.985Z,5.72
2023-01-09T15:28:54.410Z,6.01
2023-01-09T15:31:23.225Z,6.27
2023-01-09T15:33:53.087Z,6.07
2023-01-09T15:36:24.740Z,6.24
2023-01-09T15:38:51.929Z,6.28
2023-01-09T15:41:42.290Z,5.93
2023-01-09T15:44:13.524Z,5.71
2023-01-09T15:46:40.352Z,5.79
2023-01-09T15:49:10.803Z,5.99
2023-01-09T15:51:37.315Z,5.91
2023-01-09T15:54:04.019Z,5.97
2023-01-09T15:56:30.873Z,6.11
2023-01-09T15:59:01.054Z,5.85
2023-01-09T16:01:32.175Z,5.75
2023-01-09T16:04:18.845Z,5.91
2023-01-09T16:06:50.082Z,5.93
2023-01-09T16:09:28.360Z,6.05
2023-01-09T16:11:56.364Z,6.35
2023-01-09T16:14:24.984Z,6.26
2023-01-09T16:16:52.123Z,6.10
2023-01-09T16:19:37.373Z,6.17
2023-01-09T16:22:03.996Z,6.11
2023-01-09T16:24:41.329Z,6.26
2023-01-09T16:27:12.144Z,6.29
2023-01-09T16:29:44.733Z,6.09
2023-01-09T16:32:16.980Z,5.83
2023-01-09T16:34:44.168Z,5.80
2023-01-09T16:37:12.732Z,5.58
2023-01-09T16:39:39.132Z,5.58
2023-01-09T16:42:27.607Z,5.61
2023-01-09T16:44:54.062Z,5.69
2023-01-09T16:47:20.513Z,5.72
2023-01-09T16:49:46.929Z,5.55
2023-01-09T16:52:17.025Z,5.48
2023-01-09T16:54:43.700Z,5.60
2023-01-09T16:57:13.354Z,5.51
2023-01-09T16:59:39.787Z,5.21
2023-01-09T17:02:15.653Z,4.94
2023-01-09T17:04:42.072Z,4.61
2023-01-09T17:07:10.206Z,4.83
2023-01-09T17:09:38.136Z,5.14
2023-01-09T17:12:05.087Z,4.72
2023-01-09T17:14:31.567Z,5.07
2023-01-09T17:16:58.309Z,5.11
2023-01-09T17:19:24.780Z,4.68
2023-01-09T17:21:51.210Z,4.97
2023-01-09T17:24:44.640Z,4.85
2023-01-09T17:27:30.061Z,4.74
2023-01-09T17:29:56.581Z,5.00
2023-01-09T17:32:23.007Z,5.08
2023-01-09T17:34:49.475Z,4.94
2023-01-09T17:37:17.056Z,4.93
2023-01-09T17:39:43.828Z,5.02
2023-01-09T17:42:10.241Z,4.64
2023-01-09T17:44:37.250Z,4.92
2023-01-09T17:47:03.972Z,5.00
2023-01-09T17:49:30.378Z,4.79
2023-01-09T17:51:56.821Z,4.70
2023-01-09T17:54:23.297Z,4.81
2023-01-09T17:56:51.090Z,4.96
2023-01-09T17:59:17.747Z,4.70
2023-01-09T18:01:44.709Z,4.90
2023-01-09T18:04:11.335Z,4.95
2023-01-09T18:06:37.994Z,4.74
2023-01-09T18:09:05.438Z,4.96
2023-01-09T18:11:31.908Z,4.79
2023-01-09T18:13:58.724Z,4.92
2023-01-09T18:16:27.261Z,4.82
2023-01-09T18:18:54.499Z,4.91
2023-01-09T18:21:22.447Z,5.29
2023-01-09T18:23:50.145Z,4.93
2023-01-09T18:26:22.854Z,4.79
2023-01-09T18:28:49.259Z,4.68
2023-01-09T18:31:17.403Z,4.56
2023-01-09T18:33:46.966Z,4.45
2023-01-09T18:36:13.429Z,4.41
2023-01-09T18:38:39.958Z,4.83
2023-01-09T18:41:06.535Z,4.67
2023-01-09T18:43:33.001Z,5.03
2023-01-09T18:45:59.474Z,4.87
2023-01-09T18:48:26.671Z,4.86
2023-01-09T18:51:01.542Z,4.83
2023-01-09T18:53:28.044Z,4.75
2023-01-09T18:55:54.497Z,5.00
2023-01-09T18:58:20.884Z,4.98
2023-01-09T19:00:49.112Z,5.11
2023-01-09T19:03:15.664Z,5.14
2023-01-09T19:05:42.087Z,4.45
2023-01-09T19:08:08.476Z,4.43
2023-01-09T19:10:34.925Z,4.67
2023-01-09T19:13:01.490Z,4.85
2023-01-09T19:15:29.926Z,4.90
2023-01-09T19:17:57.068Z,4.93
2023-01-09T19:20:23.582Z,5.10
2023-01-09T19:22:50.014Z,4.94
2023-01-09T19:25:16.510Z,4.83
2023-01-09T19:27:42.911Z,4.67
2023-01-09T19:30:10.368Z,4.44
2023-01-09T19:32:38.319Z,4.73
2023-01-09T19:35:04.919Z,4.74
2023-01-09T19:37:31.326Z,4.50
2023-01-09T19:39:57.774Z,4.41
2023-01-09T19:42:24.197Z,4.58
2023-01-09T19:44:50.585Z,4.67
2023-01-09T19:47:17.862Z,5.02
2023-01-09T19:49:44.263Z,4.69
2023-01-09T19:52:10.968Z,4.63
2023-01-09T19:54:37.465Z,4.56
2023-01-09T19:57:03.869Z,4.41
2023-01-09T19:59:30.479Z,4.05
2023-01-09T20:01:57.540Z,4.69
2023-01-09T20:04:26.674Z,4.66
2023-01-09T20:06:53.420Z,4.66
2023-01-09T20:09:25.737Z,4.90
2023-01-09T20:11:52.154Z,4.51
2023-01-09T20:14:19.219Z,5.03
2023-01-09T20:16:47.307Z,5.06
2023-01-09T20:19:14.772Z,5.02
2023-01-09T20:21:41.710Z,5.10
2023-01-09T20:24:08.896Z,4.91
2023-01-09T20:26:36.124Z,5.10
2023-01-09T20:29:02.688Z,5.07
2023-01-09T20:31:31.235Z,5.04
2023-01-09T20:33:59.715Z,4.94
2023-01-09T20:36:30.269Z,4.86
2023-01-09T20:38:58.226Z,4.59
2023-01-09T20:41:25.721Z,4.69
2023-01-09T20:43:55.460Z,5.00
2023-01-09T20:46:22.773Z,4.74
2023-01-09T20:48:49.547Z,4.94
2023-01-09T20:51:16.020Z,4.94
2023-01-09T20:53:46.696Z,4.82
2023-01-09T20:56:13.538Z,4.70
2023-01-09T20:58:42.183Z,4.87
2023-01-09T21:01:10.120Z,5.06
2023-01-09T21:03:36.901Z,5.17
2023-01-09T21:06:04.798Z,5.13
2023-01-09T21:08:31.226Z,5.02
2023-01-09T21:10:57.678Z,5.04
2023-01-09T21:13:24.355Z,4.89
2023-01-09T21:15:50.775Z,4.48
2023-01-09T21:18:17.217Z,4.67
2023-01-09T21:20:43.766Z,4.64
2023-01-09T21:23:10.840Z,4.57
2023-01-09T21:25:40.623Z,4.47
2023-01-09T21:28:07.872Z,4.64
2023-01-09T21:30:34.581Z,4.27
2023-01-09T21:33:01.029Z,4.24
2023-01-09T21:35:27.479Z,4.51
2023-01-09T21:37:53.870Z,4.78
2023-01-09T21:40:20.288Z,4.24
2023-01-09T21:43:05.457Z,4.61
2023-01-09T21:45:50.933Z,4.79
2023-01-09T21:48:17.420Z,4.91
2023-01-09T21:50:43.903Z,4.47
2023-01-09T21:53:10.377Z,4.30
2023-01-09T21:55:36.884Z,4.23
2023-01-09T21:58:04.093Z,4.50
2023-01-09T22:00:30.673Z,4.22
2023-01-09T22:02:57.846Z,4.22
2023-01-09T22:05:24.658Z,4.82
2023-01-09T22:07:51.489Z,4.74
2023-01-09T22:10:17.933Z,4.74
2023-01-09T22:13:04.326Z,4.63
2023-01-09T22:15:30.818Z,4.48
2023-01-09T22:17:57.223Z,4.78
2023-01-09T22:20:23.590Z,4.35
2023-01-09T22:22:49.981Z,4.54
2023-01-09T22:25:16.472Z,4.77
2023-01-09T22:27:42.860Z,4.51
2023-01-09T22:30:10.673Z,4.96
2023-01-09T22:32:37.073Z,5.11
2023-01-09T22:35:03.626Z,5.35
2023-01-09T22:37:33.047Z,5.38
2023-01-09T22:39:59.454Z,5.08
2023-01-09T22:42:25.939Z,4.72
2023-01-09T22:44:52.323Z,5.32
2023-01-09T22:47:18.733Z,5.45
2023-01-09T22:49:52.723Z,4.96
2023-01-09T22:52:20.010Z,5.34
2023-01-09T22:54:46.474Z,5.45
2023-01-09T22:57:12.925Z,5.26
2023-01-09T22:59:39.398Z,5.27
2023-01-09T23:02:05.974Z,5.27
2023-01-09T23:04:32.478Z,5.26
2023-01-09T23:06:58.962Z,5.22
2023-01-09T23:09:26.485Z,4.95
2023-01-09T23:12:02.084Z,5.16
2023-01-09T23:14:32.619Z,5.24
2023-01-09T23:16:59.139Z,4.99
2023-01-09T23:19:25.654Z,5.17
2023-01-09T23:21:52.054Z,5.18
2023-01-09T23:24:19.739Z,5.22
2023-01-09T23:26:46.426Z,5.32
2023-01-09T23:29:13.506Z,5.05
2023-01-09T23:31:39.982Z,5.08
2023-01-09T23:34:08.179Z,5.18
2023-01-09T23:36:35.021Z,4.88
2023-01-09T23:39:02.700Z,4.90
2023-01-09T23:41:47.960Z,4.91
2023-01-09T23:44:14.345Z,4.89
2023-01-09T23:46:40.777Z,4.94
2023-01-09T23:49:07.210Z,5.05
2023-01-09T23:51:33.623Z,4.94
2023-01-09T23:54:00.117Z,5.03
2023-01-09T23:56:26.866Z,4.97
2023-01-09T23:58:53.355Z,5.17
